createdAt,value
2022-10-17T00:00:59.838Z,63.03
2022-10-17T00:03:26.993Z,61.10
2022-10-17T00:05:54.038Z,57.83
2022-10-17T00:08:21.477Z,60.60
2022-10-17T00:11:08.497Z,61.28
2022-10-17T00:13:35.941Z,64.30
2022-10-17T00:16:02.868Z,64.32
2022-10-17T00:18:29.894Z,64.13
2022-10-17T00:20:56.863Z,60.65
2022-10-17T00:23:24.155Z,59.17
2022-10-17T00:26:05.780Z,61.33
2022-10-17T00:28:33.225Z,70.95
2022-10-17T00:31:04.566Z,71.20
2022-10-17T00:33:34.311Z,77.30
2022-10-17T00:36:07.271Z,83.93
2022-10-17T00:38:37.315Z,78.15
2022-10-17T00:41:05.073Z,89.95
2022-10-17T00:43:58.459Z,82.07
2022-10-17T00:46:36.687Z,84.68
2022-10-17T00:49:10.278Z,89.38
2022-10-17T00:51:53.105Z,94.80
2022-10-17T00:54:27.577Z,90.35
2022-10-17T00:56:55.319Z,91.95
2022-10-17T00:59:23.917Z,92.63
2022-10-17T01:02:16.841Z,91.75
2022-10-17T01:04:47.809Z,90.40
2022-10-17T01:07:14.799Z,94.07
2022-10-17T01:09:44.678Z,96.35
2022-10-17T01:12:37.044Z,90.45
2022-10-17T01:15:50.458Z,91.85
2022-10-17T01:18:37.665Z,95.88
2022-10-17T01:21:30.490Z,94.28
2022-10-17T01:24:44.281Z,108.13
2022-10-17T01:27:36.225Z,108.63
2022-10-17T01:30:24.194Z,117.38
2022-10-17T01:33:18.029Z,110.30
2022-10-17T01:36:18.919Z,114.28
2022-10-17T01:38:54.463Z,116.72
2022-10-17T01:41:39.656Z,114.20
2022-10-17T01:44:18.417Z,123.80
2022-10-17T01:46:51.315Z,121.82
2022-10-17T01:49:24.832Z,131.25
2022-10-17T01:52:15.202Z,129.20
2022-10-17T01:55:09.370Z,130.48
2022-10-17T01:57:42.869Z,134.40
2022-10-17T02:00:15.588Z,137.77
2022-10-17T02:02:45.343Z,132.05
2022-10-17T02:05:12.681Z,120.22
2022-10-17T02:07:43.357Z,119.43
2022-10-17T02:10:24.012Z,118.75
2022-10-17T02:13:18.361Z,106.85
2022-10-17T02:16:29.597Z,114.50
2022-10-17T02:19:36.907Z,108.47
2022-10-17T02:25:19.689Z,125.00
2022-10-17T02:28:10.835Z,122.90
2022-10-17T02:31:03.734Z,113.35
2022-10-17T02:33:45.196Z,109.07
2022-10-17T02:36:19.235Z,112.55
2022-10-17T02:38:46.960Z,103.20
2022-10-17T02:41:18.432Z,104.32
2022-10-17T02:43:49.166Z,107.75
2022-10-17T02:46:22.506Z,102.93
2022-10-17T02:48:57.146Z,102.43
2022-10-17T02:51:43.832Z,100.97
2022-10-17T02:54:34.563Z,108.95
2022-10-17T02:57:14.992Z,95.90
2022-10-17T02:59:45.782Z,108.10
2022-10-17T03:02:13.264Z,107.43
2022-10-17T03:04:44.347Z,103.45
2022-10-17T03:07:11.438Z,105.18
2022-10-17T03:09:38.528Z,102.18
2022-10-17T03:12:06.217Z,100.82
2022-10-17T03:14:34.728Z,99.38
2022-10-17T03:17:04.016Z,107.07
2022-10-17T03:19:31.419Z,107.35
2022-10-17T03:21:58.574Z,102.05
2022-10-17T03:24:25.538Z,94.80
2022-10-17T03:26:52.482Z,102.13
2022-10-17T03:29:19.696Z,95.38
2022-10-17T03:31:47.740Z,99.20
2022-10-17T03:34:17.692Z,96.40
2022-10-17T03:36:45.871Z,92.22
2022-10-17T03:39:13.239Z,88.40
2022-10-17T03:41:40.301Z,97.57
2022-10-17T03:44:07.890Z,94.35
2022-10-17T03:46:35.417Z,96.55
2022-10-17T03:49:02.476Z,101.65
2022-10-17T03:51:29.879Z,90.07
2022-10-17T03:54:03.002Z,97.60
2022-10-17T03:56:30.080Z,89.60
2022-10-17T03:59:01.991Z,93.55
2022-10-17T04:01:30.916Z,87.80
2022-10-17T04:03:58.157Z,93.40
2022-10-17T04:06:29.497Z,94.97
2022-10-17T04:08:56.709Z,92.10
2022-10-17T04:11:33.207Z,96.05
2022-10-17T04:14:03.114Z,90.60
2022-10-17T04:16:30.667Z,99.40
2022-10-17T04:19:01.720Z,91.43
2022-10-17T04:21:34.184Z,97.78
2022-10-17T04:24:07.154Z,99.43
2022-10-17T04:26:50.132Z,98.63
2022-10-17T04:29:18.635Z,101.75
2022-10-17T04:31:49.892Z,96.20
2022-10-17T04:34:30.803Z,100.82
2022-10-17T04:36:57.797Z,104.55
2022-10-17T04:39:24.756Z,108.13
2022-10-17T04:41:52.196Z,103.70
2022-10-17T04:44:20.854Z,108.20
2022-10-17T04:46:51.744Z,93.85
2022-10-17T04:49:20.003Z,96.68
2022-10-17T04:51:49.849Z,96.70
2022-10-17T04:54:23.565Z,96.43
2022-10-17T04:56:57.578Z,96.28
2022-10-17T04:59:26.018Z,90.00
2022-10-17T05:02:04.273Z,94.90
2022-10-17T05:04:33.201Z,95.38
2022-10-17T05:07:00.702Z,91.95
2022-10-17T05:09:48.024Z,91.20
2022-10-17T05:12:18.103Z,93.57
2022-10-17T05:14:46.681Z,84.00
2022-10-17T05:17:14.841Z,85.38
2022-10-17T05:19:41.867Z,84.38
2022-10-17T05:22:09.519Z,89.03
2022-10-17T05:24:36.826Z,87.32
2022-10-17T05:27:04.247Z,84.35
2022-10-17T05:29:31.378Z,85.03
2022-10-17T05:32:06.754Z,88.15
2022-10-17T05:34:35.195Z,87.85
2022-10-17T05:37:02.356Z,87.93
2022-10-17T05:39:29.646Z,89.82
2022-10-17T05:41:58.261Z,91.43
2022-10-17T05:44:26.086Z,102.90
2022-10-17T05:46:57.598Z,92.60
2022-10-17T05:49:33.397Z,102.47
2022-10-17T05:52:12.712Z,126.93
2022-10-17T05:54:55.366Z,179.65
2022-10-17T05:57:26.335Z,189.32
2022-10-17T05:59:54.696Z,210.57
2022-10-17T06:02:22.254Z,333.65
2022-10-17T06:04:50.559Z,205.80
2022-10-17T06:07:20.392Z,323.98
2022-10-17T06:09:49.239Z,180.43
2022-10-17T06:12:16.978Z,198.48
2022-10-17T06:14:45.240Z,211.57
2022-10-17T06:17:15.945Z,197.15
2022-10-17T06:19:44.931Z,210.52
2022-10-17T06:22:14.660Z,214.02
2022-10-17T06:24:42.610Z,231.95
2022-10-17T06:27:12.118Z,208.98
2022-10-17T06:29:40.921Z,221.95
2022-10-17T06:32:11.085Z,358.38
2022-10-17T06:37:09.990Z,266.42
2022-10-17T06:39:39.906Z,239.20
2022-10-17T06:42:16.585Z,217.63
2022-10-17T06:45:08.589Z,232.95
2022-10-17T06:47:53.714Z,218.40
2022-10-17T06:50:35.826Z,199.25
2022-10-17T06:53:25.029Z,253.82
2022-10-17T06:55:54.132Z,221.95
2022-10-17T06:58:54.782Z,184.02
2022-10-17T07:01:47.127Z,200.80
2022-10-17T07:04:15.955Z,182.32
2022-10-17T07:06:44.161Z,180.52
2022-10-17T07:09:17.143Z,205.75
2022-10-17T07:11:45.287Z,189.77
2022-10-17T07:14:16.282Z,196.10
2022-10-17T07:16:43.388Z,186.35
2022-10-17T07:19:19.688Z,190.63
2022-10-17T07:21:46.793Z,207.65
2022-10-17T07:24:13.777Z,207.68
2022-10-17T07:26:45.801Z,198.32
2022-10-17T07:29:13.511Z,215.07
2022-10-17T07:31:45.733Z,254.10
2022-10-17T07:34:13.018Z,235.50
2022-10-17T07:36:40.849Z,216.30
2022-10-17T07:39:08.902Z,230.73
2022-10-17T07:41:38.062Z,235.43
2022-10-17T07:44:05.879Z,225.55
2022-10-17T07:46:37.602Z,214.10
2022-10-17T07:49:05.666Z,221.23
2022-10-17T07:51:34.132Z,212.77
2022-10-17T07:54:01.489Z,216.00
2022-10-17T07:56:29.734Z,217.90
2022-10-17T08:01:25.908Z,195.60
2022-10-17T08:03:52.788Z,200.02
2022-10-17T08:06:19.979Z,200.57
2022-10-17T08:08:46.890Z,199.98
2022-10-17T08:11:15.666Z,202.73
2022-10-17T08:13:43.650Z,228.35
2022-10-17T08:16:13.331Z,209.82
2022-10-17T08:18:42.577Z,205.23
2022-10-17T08:21:11.133Z,187.75
2022-10-17T08:23:38.273Z,198.43
2022-10-17T08:26:10.700Z,200.35
2022-10-17T08:28:40.232Z,203.95
2022-10-17T08:31:11.706Z,192.02
2022-10-17T08:33:38.995Z,208.80
2022-10-17T08:36:07.152Z,181.88
2022-10-17T08:38:37.589Z,187.27
2022-10-17T08:41:47.881Z,184.73
2022-10-17T08:44:41.947Z,162.75
2022-10-17T08:47:36.568Z,189.55
2022-10-17T08:52:49.324Z,187.30
2022-10-17T08:55:41.491Z,172.85
2022-10-17T08:58:24.094Z,158.25
2022-10-17T09:01:24.672Z,157.63
2022-10-17T09:04:22.908Z,162.30
2022-10-17T09:07:27.373Z,137.73
2022-10-17T09:10:04.619Z,141.07
2022-10-17T09:13:07.707Z,134.02
2022-10-17T09:16:07.465Z,125.15
2022-10-17T09:18:40.189Z,125.00
2022-10-17T09:21:21.256Z,117.75
2022-10-17T09:24:09.003Z,118.35
2022-10-17T09:26:39.661Z,118.78
2022-10-17T09:29:40.177Z,117.15
2022-10-17T09:32:23.281Z,120.75
2022-10-17T09:34:53.378Z,111.88
2022-10-17T09:37:31.509Z,113.18
2022-10-17T09:39:58.550Z,110.35
2022-10-17T09:42:28.479Z,105.93
2022-10-17T09:45:01.468Z,96.78
2022-10-17T09:47:41.489Z,94.20
2022-10-17T09:50:28.553Z,90.88
2022-10-17T09:53:19.650Z,88.72
2022-10-17T09:55:51.456Z,78.05
2022-10-17T09:58:20.697Z,79.95
2022-10-17T10:00:49.202Z,82.60
2022-10-17T10:03:25.667Z,82.47
2022-10-17T10:06:01.254Z,93.20
2022-10-17T10:08:38.206Z,81.03
2022-10-17T10:11:13.393Z,71.97
2022-10-17T10:13:43.020Z,77.63
2022-10-17T10:16:31.895Z,72.57
2022-10-17T10:18:59.368Z,72.15
2022-10-17T10:21:27.740Z,73.60
2022-10-17T10:24:09.834Z,79.30
2022-10-17T10:26:45.178Z,74.05
2022-10-17T10:29:49.191Z,77.57
2022-10-17T10:32:26.878Z,79.22
2022-10-17T10:35:00.181Z,68.32
2022-10-17T10:37:39.851Z,64.22
2022-10-17T10:40:23.488Z,70.15
2022-10-17T10:42:57.217Z,76.13
2022-10-17T10:45:47.621Z,87.38
2022-10-17T10:48:35.893Z,90.88
2022-10-17T10:51:19.874Z,92.35
2022-10-17T10:54:21.841Z,87.10
2022-10-17T10:56:59.300Z,82.68
2022-10-17T10:59:36.583Z,76.93
2022-10-17T11:02:30.496Z,76.43
2022-10-17T11:05:05.334Z,77.30
2022-10-17T11:07:39.859Z,78.32
2022-10-17T11:10:39.506Z,81.78
2022-10-17T11:13:16.201Z,75.28
2022-10-17T11:15:51.769Z,84.25
2022-10-17T11:18:35.150Z,75.82
2022-10-17T11:21:46.638Z,70.80
2022-10-17T11:24:25.687Z,76.70
2022-10-17T11:27:01.814Z,79.43
2022-10-17T11:29:33.044Z,77.43
2022-10-17T11:32:15.499Z,81.22
2022-10-17T11:34:56.590Z,76.03
2022-10-17T11:37:34.468Z,75.35
2022-10-17T11:40:30.892Z,76.55
2022-10-17T11:43:20.665Z,80.95
2022-10-17T11:45:57.347Z,72.78
2022-10-17T11:48:32.384Z,76.05
2022-10-17T11:54:20.814Z,67.43
2022-10-17T11:57:10.761Z,67.05
2022-10-17T12:00:10.247Z,68.72
2022-10-17T12:03:24.611Z,66.10
2022-10-17T12:06:08.636Z,69.37
2022-10-17T12:08:44.743Z,65.28
2022-10-17T12:11:56.446Z,60.35
2022-10-17T12:14:36.710Z,60.90
2022-10-17T12:17:23.215Z,70.22
2022-10-17T12:19:50.450Z,62.05
2022-10-17T12:22:21.763Z,60.03
2022-10-17T12:24:58.057Z,65.15
2022-10-17T12:27:45.864Z,68.95
2022-10-17T12:30:13.531Z,64.35
2022-10-17T12:33:07.101Z,61.05
2022-10-17T12:35:37.937Z,73.20
2022-10-17T12:38:17.003Z,62.40
2022-10-17T12:40:48.520Z,65.80
2022-10-17T12:43:15.885Z,64.53
2022-10-17T12:45:59.156Z,63.42
2022-10-17T12:48:38.646Z,67.60
2022-10-17T12:51:35.411Z,62.33
2022-10-17T12:54:15.212Z,65.75
2022-10-17T12:56:48.192Z,62.60
2022-10-17T12:59:22.508Z,63.93
2022-10-17T13:01:57.706Z,64.55
2022-10-17T13:04:26.013Z,59.85
2022-10-17T13:06:58.665Z,63.08
2022-10-17T13:09:37.425Z,59.50
2022-10-17T13:12:13.192Z,60.53
2022-10-17T13:14:43.303Z,60.42
2022-10-17T13:17:28.291Z,61.70
2022-10-17T13:19:56.366Z,65.55
2022-10-17T13:22:28.148Z,60.72
2022-10-17T13:25:16.020Z,59.13
2022-10-17T13:27:43.472Z,52.83
2022-10-17T13:30:27.947Z,55.15
2022-10-17T13:32:58.225Z,54.42
2022-10-17T13:35:55.308Z,57.80
2022-10-17T13:38:17.276Z,54.50
2022-10-17T13:40:50.023Z,48.75
2022-10-17T13:43:24.238Z,53.10
2022-10-17T13:48:38.315Z,61.75
2022-10-17T13:51:10.294Z,42.67
2022-10-17T13:53:42.513Z,42.20
2022-10-17T13:56:29.969Z,43.13
2022-10-17T13:59:18.447Z,41.65
2022-10-17T14:01:45.972Z,39.13
2022-10-17T14:04:19.905Z,37.35
2022-10-17T14:06:51.314Z,50.58
2022-10-17T14:09:26.144Z,38.50
2022-10-17T14:12:11.165Z,40.90
2022-10-17T14:15:05.181Z,45.10
2022-10-17T14:17:29.612Z,43.22
2022-10-17T14:20:36.329Z,43.78
2022-10-17T14:23:20.905Z,44.13
2022-10-17T14:25:41.128Z,56.33
2022-10-17T14:28:11.735Z,47.13
2022-10-17T14:30:56.210Z,46.13
2022-10-17T14:33:30.773Z,45.72
2022-10-17T14:36:00.720Z,42.80
2022-10-17T14:38:29.995Z,40.42
2022-10-17T14:41:29.687Z,50.00
2022-10-17T14:43:56.245Z,50.80
2022-10-17T14:46:24.567Z,44.03
2022-10-17T14:49:02.601Z,45.15
2022-10-17T14:51:39.961Z,40.92
2022-10-17T14:54:26.273Z,43.97
2022-10-17T14:56:54.965Z,43.17
2022-10-17T14:59:52.363Z,40.15
2022-10-17T15:02:13.849Z,37.58
2022-10-17T15:04:41.290Z,38.88
2022-10-17T15:07:14.530Z,42.38
2022-10-17T15:09:43.075Z,39.50
2022-10-17T15:12:20.273Z,42.33
2022-10-17T15:14:48.614Z,45.83
2022-10-17T15:17:38.000Z,39.35
2022-10-17T15:20:20.435Z,41.63
2022-10-17T15:22:48.678Z,41.60
2022-10-17T15:25:15.653Z,45.67
2022-10-17T15:27:42.543Z,45.17
2022-10-17T15:30:32.220Z,44.97
2022-10-17T15:32:59.947Z,40.42
2022-10-17T15:35:28.373Z,42.20
2022-10-17T15:37:55.861Z,40.08
2022-10-17T15:40:29.498Z,35.75
2022-10-17T15:42:57.366Z,41.40
2022-10-17T15:45:24.458Z,40.90
2022-10-17T15:47:59.235Z,36.95
2022-10-17T15:50:29.106Z,38.83
2022-10-17T15:52:56.590Z,42.03
2022-10-17T15:55:23.956Z,41.88
2022-10-17T15:57:51.205Z,44.70
2022-10-17T16:00:24.837Z,43.03
2022-10-17T16:02:51.936Z,37.53
2022-10-17T16:05:29.174Z,44.67
2022-10-17T16:07:57.858Z,44.10
2022-10-17T16:10:28.262Z,40.90
2022-10-17T16:12:56.239Z,39.47
2022-10-17T16:15:26.599Z,48.67
2022-10-17T16:17:57.387Z,43.30
2022-10-17T16:20:26.209Z,43.35
2022-10-17T16:22:59.892Z,43.95
2022-10-17T16:27:59.610Z,43.22
2022-10-17T16:30:30.123Z,52.22
2022-10-17T16:32:57.370Z,48.28
2022-10-17T16:35:33.256Z,48.55
2022-10-17T16:38:05.572Z,41.10
2022-10-17T16:40:32.753Z,51.63
2022-10-17T16:42:59.998Z,53.10
2022-10-17T16:45:27.169Z,52.50
2022-10-17T16:47:54.273Z,49.90
2022-10-17T16:50:21.581Z,57.95
2022-10-17T16:52:48.748Z,43.80
2022-10-17T16:55:18.851Z,49.63
2022-10-17T16:57:46.308Z,51.17
2022-10-17T17:00:15.948Z,55.95
2022-10-17T17:02:43.425Z,52.03
2022-10-17T17:05:10.797Z,46.33
2022-10-17T17:07:38.019Z,55.28
2022-10-17T17:10:06.128Z,53.42
2022-10-17T17:12:35.696Z,56.72
2022-10-17T17:15:04.325Z,53.53
2022-10-17T17:17:49.272Z,51.67
2022-10-17T17:20:25.147Z,52.45
2022-10-17T17:22:52.899Z,55.08
2022-10-17T17:25:20.000Z,61.20
2022-10-17T17:27:47.059Z,54.28
2022-10-17T17:30:14.081Z,57.47
2022-10-17T17:32:41.101Z,50.05
2022-10-17T17:35:09.496Z,59.42
2022-10-17T17:37:36.602Z,53.83
2022-10-17T17:40:05.921Z,57.90
2022-10-17T17:42:32.911Z,58.83
2022-10-17T17:44:59.994Z,53.42
2022-10-17T17:47:29.469Z,55.25
2022-10-17T17:49:56.921Z,60.15
2022-10-17T17:52:23.863Z,65.28
2022-10-17T17:54:51.111Z,55.70
2022-10-17T17:57:18.554Z,57.63
2022-10-17T17:59:45.538Z,57.42
2022-10-17T18:02:12.629Z,55.63
2022-10-17T18:04:39.645Z,54.75
2022-10-17T18:07:06.773Z,58.65
2022-10-17T18:09:33.837Z,56.33
2022-10-17T18:12:00.810Z,55.65
2022-10-17T18:14:27.846Z,56.08
2022-10-17T18:16:54.800Z,67.57
2022-10-17T18:19:23.800Z,59.95
2022-10-17T18:21:50.737Z,58.50
2022-10-17T18:24:17.597Z,58.05
2022-10-17T18:26:44.691Z,61.92
2022-10-17T18:29:12.849Z,60.17
2022-10-17T18:31:39.818Z,55.17
2022-10-17T18:34:06.934Z,59.20
2022-10-17T18:36:35.516Z,60.13
2022-10-17T18:39:04.707Z,58.08
2022-10-17T18:41:32.221Z,57.40
2022-10-17T18:43:59.376Z,58.88
2022-10-17T18:46:40.830Z,58.45
2022-10-17T18:49:09.900Z,64.50
2022-10-17T18:51:37.543Z,63.22
2022-10-17T18:54:04.919Z,56.45
2022-10-17T18:56:32.059Z,61.47
2022-10-17T18:59:00.292Z,68.00
2022-10-17T19:01:28.537Z,61.45
2022-10-17T19:03:58.654Z,63.95
2022-10-17T19:06:31.719Z,64.50
2022-10-17T19:09:02.415Z,65.32
2022-10-17T19:11:31.938Z,68.75
2022-10-17T19:14:02.590Z,65.78
2022-10-17T19:16:34.610Z,70.60
2022-10-17T19:19:05.991Z,75.10
2022-10-17T19:21:34.606Z,73.50
2022-10-17T19:24:04.941Z,65.18
2022-10-17T19:26:36.176Z,68.78
2022-10-17T19:29:04.816Z,73.85
2022-10-17T19:31:33.749Z,76.65
2022-10-17T19:34:01.171Z,78.85
2022-10-17T19:36:33.758Z,79.22
2022-10-17T19:39:23.362Z,77.38
2022-10-17T19:41:50.660Z,73.55
2022-10-17T19:44:18.346Z,80.15
2022-10-17T19:46:47.046Z,71.43
2022-10-17T19:49:14.853Z,72.45
2022-10-17T19:51:41.869Z,67.10
2022-10-17T19:54:09.748Z,65.45
2022-10-17T19:56:38.391Z,62.00
2022-10-17T19:59:07.465Z,66.25
2022-10-17T20:01:38.869Z,69.03
2022-10-17T20:04:08.649Z,77.80
2022-10-17T20:06:35.772Z,72.40
2022-10-17T20:09:05.092Z,76.45
2022-10-17T20:11:32.586Z,71.88
2022-10-17T20:14:01.995Z,73.55
2022-10-17T20:16:33.327Z,81.70
2022-10-17T20:19:11.168Z,69.60
2022-10-17T20:21:39.894Z,74.90
2022-10-17T20:24:11.217Z,80.20
2022-10-17T20:26:39.625Z,81.68
2022-10-17T20:29:15.631Z,85.13
2022-10-17T20:31:44.999Z,83.57
2022-10-17T20:34:15.269Z,75.45
2022-10-17T20:36:42.576Z,73.43
2022-10-17T20:39:12.310Z,71.32
2022-10-17T20:41:39.884Z,66.93
2022-10-17T20:44:07.533Z,69.25
2022-10-17T20:46:38.307Z,74.20
2022-10-17T20:49:13.720Z,67.93
2022-10-17T20:51:41.281Z,68.40
2022-10-17T20:54:08.368Z,68.03
2022-10-17T20:56:36.026Z,70.93
2022-10-17T20:59:12.365Z,62.80
2022-10-17T21:01:40.009Z,64.03
2022-10-17T21:04:33.318Z,68.93
2022-10-17T21:06:53.971Z,67.03
2022-10-17T21:09:22.219Z,71.72
2022-10-17T21:11:55.681Z,63.38
2022-10-17T21:14:24.987Z,79.30
2022-10-17T21:16:52.412Z,68.15
2022-10-17T21:19:20.063Z,67.65
2022-10-17T21:21:47.640Z,66.28
2022-10-17T21:24:18.089Z,67.40
2022-10-17T21:26:47.980Z,70.63
2022-10-17T21:29:15.192Z,74.72
2022-10-17T21:31:44.679Z,76.80
2022-10-17T21:34:18.485Z,70.43
2022-10-17T21:36:45.807Z,72.88
2022-10-17T21:39:14.661Z,71.47
2022-10-17T21:41:43.204Z,67.07
2022-10-17T21:44:18.435Z,67.38
2022-10-17T21:46:46.476Z,68.32
2022-10-17T21:49:16.403Z,70.53
2022-10-17T21:51:44.629Z,76.75
2022-10-17T21:54:12.087Z,75.97
2022-10-17T21:56:39.559Z,73.43
2022-10-17T21:59:07.153Z,79.97
2022-10-17T22:01:37.913Z,77.80
2022-10-17T22:04:11.478Z,70.55
2022-10-17T22:06:41.311Z,79.32
2022-10-17T22:09:15.858Z,69.93
2022-10-17T22:11:47.475Z,69.10
2022-10-17T22:14:18.274Z,75.05
2022-10-17T22:16:46.843Z,73.75
2022-10-17T22:19:18.877Z,69.50
2022-10-17T22:21:46.088Z,70.65
2022-10-17T22:24:16.110Z,77.13
2022-10-17T22:26:44.682Z,81.80
2022-10-17T22:29:12.375Z,85.90
2022-10-17T22:31:39.923Z,75.70
2022-10-17T22:34:08.099Z,72.65
2022-10-17T22:36:35.619Z,73.55
2022-10-17T22:39:04.145Z,70.88
2022-10-17T22:41:31.617Z,76.43
2022-10-17T22:43:58.647Z,72.25
2022-10-17T22:46:25.952Z,71.60
2022-10-17T22:48:53.034Z,81.07
2022-10-17T22:51:20.820Z,77.05
2022-10-17T22:53:47.835Z,77.22
2022-10-17T22:56:18.799Z,69.47
2022-10-17T22:58:46.663Z,68.72
2022-10-17T23:01:21.511Z,74.78
2022-10-17T23:03:49.262Z,74.22
2022-10-17T23:06:16.892Z,77.82
2022-10-17T23:08:44.422Z,73.85
2022-10-17T23:11:11.743Z,74.32
2022-10-17T23:13:40.752Z,74.25
2022-10-17T23:16:08.566Z,73.88
2022-10-17T23:18:37.302Z,69.35
2022-10-17T23:21:04.812Z,79.13
2022-10-17T23:23:31.782Z,75.03
2022-10-17T23:26:11.427Z,68.32
2022-10-17T23:28:38.644Z,80.53
2022-10-17T23:31:19.126Z,75.63
2022-10-17T23:33:48.420Z,76.20
2022-10-17T23:36:19.298Z,75.32
2022-10-17T23:38:47.493Z,69.80
2022-10-17T23:41:15.251Z,75.65
2022-10-17T23:43:43.489Z,79.28
2022-10-17T23:46:11.358Z,70.95
2022-10-17T23:48:38.968Z,74.65
2022-10-17T23:51:07.645Z,74.35
2022-10-17T23:53:36.343Z,75.60
2022-10-17T23:56:04.301Z,72.30
2022-10-17T23:58:31.491Z,79.15
